createdAt,value
2023-08-15T00:00:51.461Z,99.90
2023-08-15T00:03:34.245Z,99.90
2023-08-15T00:06:02.841Z,99.90
2023-08-15T00:08:31.068Z,99.90
2023-08-15T00:10:59.868Z,99.90
2023-08-15T00:13:28.519Z,99.90
2023-08-15T00:15:58.517Z,99.90
2023-08-15T00:18:26.992Z,99.90
2023-08-15T00:20:55.513Z,99.90
2023-08-15T00:23:23.786Z,99.90
2023-08-15T00:25:52.624Z,99.90
2023-08-15T00:28:21.179Z,99.90
2023-08-15T00:30:49.727Z,99.90
2023-08-15T00:33:19.462Z,99.90
2023-08-15T00:35:48.048Z,99.90
2023-08-15T00:38:16.671Z,99.90
2023-08-15T00:40:45.251Z,99.90
2023-08-15T00:43:13.588Z,99.90
2023-08-15T00:45:44.131Z,99.90
2023-08-15T00:48:15.207Z,99.90
2023-08-15T00:50:46.615Z,99.90
2023-08-15T00:53:15.063Z,99.90
2023-08-15T00:55:44.321Z,99.90
2023-08-15T00:58:12.751Z,99.90
2023-08-15T01:00:41.466Z,99.90
2023-08-15T01:03:09.867Z,99.90
2023-08-15T01:05:40.731Z,99.90
2023-08-15T01:08:10.441Z,99.90
2023-08-15T01:10:41.320Z,99.90
2023-08-15T01:13:16.267Z,99.90
2023-08-15T01:15:51.215Z,99.90
2023-08-15T01:18:26.090Z,99.90
2023-08-15T01:20:56.918Z,99.90
2023-08-15T01:23:37.669Z,99.90
2023-08-15T01:26:06.197Z,99.90
2023-08-15T01:28:34.435Z,99.90
2023-08-15T01:31:11.226Z,99.90
2023-08-15T01:33:45.168Z,99.90
2023-08-15T01:36:18.507Z,99.90
2023-08-15T01:38:53.429Z,99.90
2023-08-15T01:41:23.455Z,99.90
2023-08-15T01:43:54.081Z,99.90
2023-08-15T01:46:23.000Z,99.90
2023-08-15T01:48:51.327Z,99.90
2023-08-15T01:51:19.839Z,99.90
2023-08-15T01:53:49.537Z,99.90
2023-08-15T01:56:18.047Z,99.90
2023-08-15T01:58:46.337Z,99.90
2023-08-15T02:01:15.462Z,99.90
2023-08-15T02:03:43.879Z,99.90
2023-08-15T02:06:12.430Z,99.90
2023-08-15T02:08:40.666Z,99.90
2023-08-15T02:11:10.695Z,99.90
2023-08-15T02:13:38.928Z,99.90
2023-08-15T02:16:07.705Z,99.90
2023-08-15T02:18:35.978Z,99.90
2023-08-15T02:21:04.598Z,99.90
2023-08-15T02:23:33.048Z,99.90
2023-08-15T02:26:01.524Z,99.90
2023-08-15T02:28:32.306Z,99.90
2023-08-15T02:31:01.086Z,99.90
2023-08-15T02:33:29.425Z,99.90
2023-08-15T02:35:57.999Z,99.90
2023-08-15T02:38:26.278Z,99.90
2023-08-15T02:40:54.786Z,99.90
2023-08-15T02:43:23.149Z,99.90
2023-08-15T02:45:53.096Z,99.90
2023-08-15T02:48:21.777Z,99.90
2023-08-15T02:50:50.348Z,99.90
2023-08-15T02:53:18.689Z,99.90
2023-08-15T02:55:51.744Z,99.90
2023-08-15T02:58:20.345Z,99.90
2023-08-15T03:00:48.997Z,99.90
2023-08-15T03:03:18.680Z,99.90
2023-08-15T03:05:47.387Z,99.90
2023-08-15T03:08:15.689Z,99.90
2023-08-15T03:10:44.252Z,99.90
2023-08-15T03:13:13.474Z,99.90
2023-08-15T03:15:42.225Z,99.90
2023-08-15T03:18:10.680Z,99.90
2023-08-15T03:20:40.739Z,99.90
2023-08-15T03:23:09.124Z,99.90
2023-08-15T03:25:37.738Z,99.90
2023-08-15T03:28:06.322Z,99.90
2023-08-15T03:30:36.212Z,99.90
2023-08-15T03:33:04.632Z,99.90
2023-08-15T03:35:33.276Z,99.90
2023-08-15T03:38:02.897Z,99.90
2023-08-15T03:40:31.437Z,99.90
2023-08-15T03:43:00.054Z,99.90
2023-08-15T03:45:30.888Z,99.90
2023-08-15T03:47:59.599Z,99.90
2023-08-15T03:50:28.366Z,99.90
2023-08-15T03:52:56.741Z,99.90
2023-08-15T03:55:26.797Z,99.90
2023-08-15T03:57:55.506Z,99.90
2023-08-15T04:00:25.117Z,99.90
2023-08-15T04:02:54.046Z,99.90
2023-08-15T04:05:25.218Z,99.90
2023-08-15T04:07:53.868Z,99.90
2023-08-15T04:10:22.922Z,99.90
2023-08-15T04:12:52.758Z,99.90
2023-08-15T04:15:21.376Z,99.90
2023-08-15T04:17:49.678Z,99.90
2023-08-15T04:20:18.645Z,99.90
2023-08-15T04:22:46.899Z,99.90
2023-08-15T04:25:17.006Z,99.90
2023-08-15T04:27:45.320Z,99.90
2023-08-15T04:30:15.407Z,99.90
2023-08-15T04:32:43.691Z,99.90
2023-08-15T04:35:12.253Z,99.90
2023-08-15T04:37:40.677Z,99.90
2023-08-15T04:40:14.028Z,99.90
2023-08-15T04:42:42.565Z,99.90
2023-08-15T04:45:11.802Z,99.90
2023-08-15T04:47:41.593Z,99.90
2023-08-15T04:50:11.316Z,99.90
2023-08-15T04:52:39.561Z,99.90
2023-08-15T04:55:11.555Z,99.90
2023-08-15T04:57:40.034Z,99.90
2023-08-15T05:00:10.157Z,99.90
2023-08-15T05:02:38.609Z,99.90
2023-08-15T05:05:11.765Z,99.90
2023-08-15T05:07:40.737Z,99.90
2023-08-15T05:10:10.247Z,99.90
2023-08-15T05:12:38.608Z,99.90
2023-08-15T05:15:09.248Z,99.90
2023-08-15T05:17:38.225Z,99.90
2023-08-15T05:20:10.001Z,99.90
2023-08-15T05:22:38.394Z,99.90
2023-08-15T05:25:07.682Z,99.90
2023-08-15T05:27:36.099Z,99.90
2023-08-15T05:30:05.146Z,99.90
2023-08-15T05:32:33.588Z,99.90
2023-08-15T05:35:02.128Z,99.90
2023-08-15T05:37:32.474Z,99.90
2023-08-15T05:40:05.388Z,99.90
2023-08-15T05:42:33.743Z,99.90
2023-08-15T05:45:02.392Z,99.90
2023-08-15T05:47:30.874Z,99.90
2023-08-15T05:49:59.536Z,99.60
2023-08-15T05:52:28.293Z,98.70
2023-08-15T05:54:58.478Z,97.80
2023-08-15T05:57:26.781Z,96.90
2023-08-15T05:59:55.534Z,95.90
2023-08-15T06:02:23.737Z,95.10
2023-08-15T06:04:52.425Z,94.40
2023-08-15T06:07:21.065Z,93.70
2023-08-15T06:09:49.785Z,93.10
2023-08-15T06:12:19.399Z,92.50
2023-08-15T06:14:47.974Z,91.90
2023-08-15T06:17:18.308Z,91.50
2023-08-15T06:19:47.099Z,90.90
2023-08-15T06:22:16.377Z,90.30
2023-08-15T06:24:45.088Z,89.40
2023-08-15T06:27:13.744Z,87.90
2023-08-15T06:29:43.661Z,86.50
2023-08-15T06:32:26.819Z,85.10
2023-08-15T06:34:55.503Z,83.60
2023-08-15T06:37:24.345Z,82.70
2023-08-15T06:39:53.039Z,81.90
2023-08-15T06:42:21.329Z,81.10
2023-08-15T06:44:52.145Z,80.40
2023-08-15T06:47:20.646Z,79.70
2023-08-15T06:49:49.324Z,79.30
2023-08-15T06:52:17.720Z,78.90
2023-08-15T06:54:47.349Z,78.50
2023-08-15T06:57:15.687Z,78.10
2023-08-15T06:59:44.750Z,77.70
2023-08-15T07:02:14.618Z,77.20
2023-08-15T07:04:45.124Z,76.80
2023-08-15T07:07:13.738Z,76.50
2023-08-15T07:09:42.531Z,76.10
2023-08-15T07:12:11.280Z,75.50
2023-08-15T07:14:40.184Z,75.00
2023-08-15T07:17:08.576Z,74.40
2023-08-15T07:19:38.914Z,73.90
2023-08-15T07:22:07.479Z,73.00
2023-08-15T07:24:36.195Z,72.50
2023-08-15T07:27:04.593Z,72.00
2023-08-15T07:29:33.187Z,71.40
2023-08-15T07:32:01.467Z,71.00
2023-08-15T07:34:30.092Z,70.80
2023-08-15T07:36:59.791Z,70.30
2023-08-15T07:39:29.019Z,69.60
2023-08-15T07:41:57.347Z,69.40
2023-08-15T07:44:26.797Z,69.20
2023-08-15T07:46:55.252Z,68.80
2023-08-15T07:49:23.999Z,68.50
2023-08-15T07:51:54.134Z,68.10
2023-08-15T07:54:24.271Z,67.60
2023-08-15T07:56:52.650Z,67.20
2023-08-15T07:59:21.428Z,67.00
2023-08-15T08:01:49.757Z,66.40
2023-08-15T08:04:20.247Z,66.00
2023-08-15T08:06:49.837Z,65.60
2023-08-15T08:09:19.458Z,65.20
2023-08-15T08:11:50.029Z,65.00
2023-08-15T08:14:20.864Z,65.50
2023-08-15T08:16:49.339Z,64.10
2023-08-15T08:19:19.177Z,64.00
2023-08-15T08:21:48.028Z,63.60
2023-08-15T08:24:17.253Z,63.30
2023-08-15T08:26:45.667Z,62.80
2023-08-15T08:29:16.406Z,62.90
2023-08-15T08:31:44.798Z,62.70
2023-08-15T08:34:15.789Z,62.20
2023-08-15T08:36:44.659Z,61.90
2023-08-15T08:39:21.806Z,61.30
2023-08-15T08:41:54.627Z,61.10
2023-08-15T08:44:26.090Z,61.10
2023-08-15T08:46:54.837Z,61.20
2023-08-15T08:49:28.975Z,61.00
2023-08-15T08:51:58.686Z,60.70
2023-08-15T08:54:46.982Z,60.30
2023-08-15T08:57:16.682Z,60.80
2023-08-15T08:59:48.347Z,60.80
2023-08-15T09:02:23.718Z,60.30
2023-08-15T09:04:56.071Z,60.40
2023-08-15T09:07:24.984Z,61.20
2023-08-15T09:09:53.731Z,61.10
2023-08-15T09:12:36.545Z,62.20
2023-08-15T09:15:09.884Z,60.50
2023-08-15T09:17:39.468Z,61.20
2023-08-15T09:20:14.781Z,60.50
2023-08-15T09:22:46.173Z,60.70
2023-08-15T09:25:16.251Z,60.80
2023-08-15T09:27:45.936Z,61.10
2023-08-15T09:30:18.678Z,62.10
2023-08-15T09:32:48.148Z,62.70
2023-08-15T09:35:18.478Z,61.80
2023-08-15T09:37:48.297Z,62.00
2023-08-15T09:40:18.595Z,62.30
2023-08-15T09:42:47.769Z,61.80
2023-08-15T09:45:18.457Z,62.10
2023-08-15T09:47:49.713Z,62.60
2023-08-15T09:50:18.872Z,62.30
2023-08-15T09:52:52.578Z,62.50
2023-08-15T09:55:22.175Z,63.00
2023-08-15T09:57:52.216Z,63.00
2023-08-15T10:00:22.466Z,63.10
2023-08-15T10:02:56.358Z,63.30
2023-08-15T10:05:31.741Z,63.40
2023-08-15T10:08:00.583Z,63.90
2023-08-15T10:10:35.178Z,64.00
2023-08-15T10:13:05.148Z,64.60
2023-08-15T10:15:36.660Z,64.40
2023-08-15T10:18:06.325Z,64.70
2023-08-15T10:20:38.901Z,64.70
2023-08-15T10:23:10.765Z,64.70
2023-08-15T10:25:42.756Z,64.70
2023-08-15T10:28:12.659Z,65.30
2023-08-15T10:30:52.381Z,65.00
2023-08-15T10:33:25.354Z,64.90
2023-08-15T10:36:08.092Z,64.80
2023-08-15T10:38:45.157Z,65.10
2023-08-15T10:41:17.122Z,65.10
2023-08-15T10:43:51.470Z,65.70
2023-08-15T10:46:31.654Z,65.70
2023-08-15T10:49:04.705Z,65.50
2023-08-15T10:51:36.057Z,65.90
2023-08-15T10:54:07.495Z,65.70
2023-08-15T10:56:38.542Z,65.90
2023-08-15T10:59:09.100Z,66.10
2023-08-15T11:01:43.433Z,66.10
2023-08-15T11:04:16.081Z,65.80
2023-08-15T11:06:53.985Z,66.30
2023-08-15T11:09:29.590Z,66.60
2023-08-15T11:12:07.160Z,66.40
2023-08-15T11:14:36.196Z,66.70
2023-08-15T11:17:08.102Z,66.60
2023-08-15T11:19:37.182Z,67.30
2023-08-15T11:22:08.002Z,67.00
2023-08-15T11:24:37.404Z,67.10
2023-08-15T11:27:07.104Z,67.30
2023-08-15T11:29:36.702Z,67.50
2023-08-15T11:32:07.259Z,67.60
2023-08-15T11:34:39.987Z,67.70
2023-08-15T11:37:12.433Z,67.70
2023-08-15T11:39:41.113Z,68.30
2023-08-15T11:42:13.322Z,68.30
2023-08-15T11:44:42.242Z,68.60
2023-08-15T11:47:15.756Z,68.90
2023-08-15T11:49:48.524Z,69.30
2023-08-15T11:52:20.622Z,69.70
2023-08-15T11:54:49.761Z,69.30
2023-08-15T11:57:36.548Z,69.50
2023-08-15T12:00:06.969Z,70.10
2023-08-15T12:02:43.098Z,70.30
2023-08-15T12:05:13.968Z,70.20
2023-08-15T12:07:43.789Z,70.30
2023-08-15T12:10:13.820Z,70.50
2023-08-15T12:12:44.179Z,70.80
2023-08-15T12:15:14.234Z,70.90
2023-08-15T12:17:44.515Z,71.10
2023-08-15T12:20:15.660Z,71.50
2023-08-15T12:22:46.005Z,71.50
2023-08-15T12:25:15.725Z,71.70
2023-08-15T12:27:51.071Z,71.80
2023-08-15T12:32:52.475Z,72.10
2023-08-15T12:35:21.185Z,72.20
2023-08-15T12:37:50.477Z,72.30
2023-08-15T12:40:30.677Z,72.60
2023-08-15T12:43:00.601Z,72.90
2023-08-15T12:45:29.647Z,73.30
2023-08-15T12:48:00.401Z,73.50
2023-08-15T12:50:28.939Z,73.60
2023-08-15T12:52:57.988Z,73.60
2023-08-15T12:55:26.759Z,73.80
2023-08-15T12:57:55.648Z,73.90
2023-08-15T13:00:23.962Z,74.00
2023-08-15T13:02:53.806Z,74.20
2023-08-15T13:05:23.701Z,74.30
2023-08-15T13:07:54.939Z,74.40
2023-08-15T13:10:23.889Z,74.40
2023-08-15T13:12:53.292Z,74.30
2023-08-15T13:15:22.023Z,74.40
2023-08-15T13:17:51.368Z,74.40
2023-08-15T13:20:19.687Z,74.60
2023-08-15T13:22:52.467Z,74.90
2023-08-15T13:25:21.028Z,74.90
2023-08-15T13:27:49.672Z,74.80
2023-08-15T13:30:18.519Z,74.80
2023-08-15T13:32:47.469Z,75.70
2023-08-15T13:35:16.504Z,74.80
2023-08-15T13:37:46.246Z,74.90
2023-08-15T13:40:15.961Z,74.80
2023-08-15T13:42:44.871Z,74.90
2023-08-15T13:45:13.510Z,75.00
2023-08-15T13:47:43.402Z,75.00
2023-08-15T13:50:12.162Z,74.80
2023-08-15T13:52:40.930Z,74.70
2023-08-15T13:55:11.041Z,74.50
2023-08-15T13:57:43.363Z,74.30
2023-08-15T14:00:13.615Z,74.40
2023-08-15T14:02:46.427Z,74.20
2023-08-15T14:05:15.046Z,74.00
2023-08-15T14:07:43.729Z,73.80
2023-08-15T14:10:13.153Z,73.80
2023-08-15T14:12:43.294Z,73.80
2023-08-15T14:15:13.522Z,73.60
2023-08-15T14:17:42.310Z,73.60
2023-08-15T14:20:12.704Z,73.50
2023-08-15T14:22:43.339Z,73.30
2023-08-15T14:25:13.527Z,73.30
2023-08-15T14:27:46.308Z,73.20
2023-08-15T14:30:15.385Z,73.00
2023-08-15T14:32:44.296Z,73.00
2023-08-15T14:35:13.002Z,72.80
2023-08-15T14:37:42.394Z,72.90
2023-08-15T14:40:11.031Z,72.90
2023-08-15T14:42:42.776Z,72.90
2023-08-15T14:45:12.807Z,73.00
2023-08-15T14:47:41.939Z,72.90
2023-08-15T14:50:13.742Z,72.80
2023-08-15T14:52:43.435Z,72.50
2023-08-15T14:55:13.184Z,72.70
2023-08-15T14:57:42.793Z,72.60
2023-08-15T15:00:14.506Z,72.70
2023-08-15T15:02:44.269Z,72.70
2023-08-15T15:05:12.934Z,72.50
2023-08-15T15:07:41.627Z,72.20
2023-08-15T15:10:11.783Z,72.30
2023-08-15T15:12:41.367Z,72.40
2023-08-15T15:15:12.178Z,72.40
2023-08-15T15:17:41.309Z,72.30
2023-08-15T15:20:10.680Z,72.20
2023-08-15T15:22:40.098Z,72.10
2023-08-15T15:25:10.781Z,72.10
2023-08-15T15:27:39.947Z,71.60
2023-08-15T15:30:10.301Z,71.30
2023-08-15T15:32:40.743Z,71.20
2023-08-15T15:35:09.661Z,71.20
2023-08-15T15:37:40.512Z,71.10
2023-08-15T15:40:10.135Z,71.00
2023-08-15T15:42:40.105Z,70.90
2023-08-15T15:45:10.358Z,70.60
2023-08-15T15:47:40.883Z,70.20
2023-08-15T15:50:09.944Z,69.20
2023-08-15T15:52:39.364Z,69.00
2023-08-15T15:55:10.380Z,68.80
2023-08-15T15:57:39.913Z,68.60
2023-08-15T16:00:13.886Z,68.40
2023-08-15T16:02:44.182Z,68.00
2023-08-15T16:05:13.033Z,68.80
2023-08-15T16:07:42.218Z,67.80
2023-08-15T16:10:12.693Z,67.90
2023-08-15T16:12:41.335Z,67.70
2023-08-15T16:15:10.701Z,67.50
2023-08-15T16:17:39.689Z,67.40
2023-08-15T16:20:10.834Z,67.40
2023-08-15T16:22:39.556Z,67.50
2023-08-15T16:25:08.655Z,67.40
2023-08-15T16:27:38.014Z,67.30
2023-08-15T16:30:17.263Z,68.00
2023-08-15T16:32:49.015Z,67.10
2023-08-15T16:35:19.205Z,67.30
2023-08-15T16:37:47.881Z,67.40
2023-08-15T16:40:16.293Z,67.40
2023-08-15T16:42:44.945Z,67.40
2023-08-15T16:45:13.241Z,67.40
2023-08-15T16:47:41.837Z,67.60
2023-08-15T16:50:10.566Z,67.60
2023-08-15T16:52:40.786Z,67.80
2023-08-15T16:55:09.609Z,68.00
2023-08-15T16:57:38.263Z,68.10
2023-08-15T17:00:08.307Z,68.40
2023-08-15T17:02:37.203Z,68.60
2023-08-15T17:05:06.281Z,68.70
2023-08-15T17:07:35.591Z,69.00
2023-08-15T17:10:06.431Z,69.20
2023-08-15T17:12:35.089Z,69.40
2023-08-15T17:15:03.996Z,69.80
2023-08-15T17:17:32.627Z,70.30
2023-08-15T17:20:01.287Z,70.80
2023-08-15T17:22:33.172Z,71.30
2023-08-15T17:25:02.024Z,71.80
2023-08-15T17:27:32.488Z,72.20
2023-08-15T17:30:01.034Z,72.60
2023-08-15T17:32:30.954Z,73.10
2023-08-15T17:34:59.418Z,73.60
2023-08-15T17:37:28.096Z,74.10
2023-08-15T17:39:56.468Z,74.60
2023-08-15T17:42:25.760Z,75.20
2023-08-15T17:44:55.519Z,75.70
2023-08-15T17:47:24.246Z,76.40
2023-08-15T17:49:52.867Z,76.90
2023-08-15T17:52:21.775Z,77.50
2023-08-15T17:54:50.420Z,78.00
2023-08-15T17:57:19.146Z,78.60
2023-08-15T17:59:47.655Z,79.00
2023-08-15T18:02:19.336Z,79.50
2023-08-15T18:04:47.908Z,80.20
2023-08-15T18:07:16.564Z,80.50
2023-08-15T18:09:45.149Z,81.00
2023-08-15T18:12:14.058Z,81.50
2023-08-15T18:14:44.053Z,81.90
2023-08-15T18:17:12.706Z,82.50
2023-08-15T18:19:43.970Z,82.90
2023-08-15T18:22:14.696Z,83.50
2023-08-15T18:24:43.310Z,83.90
2023-08-15T18:27:11.898Z,84.40
2023-08-15T18:29:40.150Z,84.90
2023-08-15T18:32:09.015Z,85.30
2023-08-15T18:34:37.841Z,85.60
2023-08-15T18:37:07.881Z,86.00
2023-08-15T18:39:36.647Z,86.40
2023-08-15T18:42:05.834Z,86.70
2023-08-15T18:44:34.127Z,87.00
2023-08-15T18:47:03.492Z,87.40
2023-08-15T18:49:32.176Z,87.80
2023-08-15T18:52:00.781Z,88.10
2023-08-15T18:54:30.618Z,88.40
2023-08-15T18:57:00.528Z,88.70
2023-08-15T18:59:29.138Z,89.10
2023-08-15T19:01:57.715Z,89.20
2023-08-15T19:04:28.190Z,89.60
2023-08-15T19:06:56.745Z,89.80
2023-08-15T19:09:25.388Z,90.00
2023-08-15T19:11:55.571Z,90.10
2023-08-15T19:14:23.910Z,90.20
2023-08-15T19:16:52.562Z,90.40
2023-08-15T19:19:20.917Z,90.50
2023-08-15T19:21:49.716Z,90.70
2023-08-15T19:24:18.962Z,90.90
2023-08-15T19:26:47.795Z,91.00
2023-08-15T19:29:17.429Z,91.20
2023-08-15T19:31:46.244Z,91.40
2023-08-15T19:34:17.401Z,91.50
2023-08-15T19:36:46.120Z,91.70
2023-08-15T19:39:14.950Z,91.90
2023-08-15T19:41:43.761Z,92.00
2023-08-15T19:44:12.079Z,92.20
2023-08-15T19:46:42.158Z,92.30
2023-08-15T19:49:10.582Z,92.50
2023-08-15T19:51:39.364Z,92.70
2023-08-15T19:54:07.976Z,92.90
2023-08-15T19:56:36.982Z,93.00
2023-08-15T19:59:05.741Z,93.20
2023-08-15T20:01:34.390Z,93.30
2023-08-15T20:04:04.213Z,93.50
2023-08-15T20:06:32.948Z,93.60
2023-08-15T20:09:01.256Z,93.80
2023-08-15T20:11:31.132Z,93.90
2023-08-15T20:14:00.113Z,94.00
2023-08-15T20:16:30.171Z,94.10
2023-08-15T20:18:58.488Z,94.30
2023-08-15T20:21:31.308Z,94.40
2023-08-15T20:24:00.339Z,94.50
2023-08-15T20:26:29.075Z,94.60
2023-08-15T20:28:57.963Z,94.80
2023-08-15T20:31:30.011Z,94.90
2023-08-15T20:34:00.928Z,95.40
2023-08-15T20:36:35.373Z,95.20
2023-08-15T20:39:04.959Z,95.30
2023-08-15T20:41:34.485Z,95.50
2023-08-15T20:44:03.498Z,95.60
2023-08-15T20:46:38.362Z,95.70
2023-08-15T20:49:08.087Z,95.80
2023-08-15T20:51:38.538Z,96.00
2023-08-15T20:54:07.347Z,96.10
2023-08-15T20:56:36.214Z,96.20
2023-08-15T20:59:05.119Z,96.30
2023-08-15T21:01:34.058Z,96.40
2023-08-15T21:04:02.536Z,96.50
2023-08-15T21:06:33.251Z,96.80
2023-08-15T21:09:02.967Z,96.90
2023-08-15T21:11:33.024Z,97.10
2023-08-15T21:14:01.745Z,97.20
2023-08-15T21:16:30.437Z,97.30
2023-08-15T21:18:59.152Z,97.50
2023-08-15T21:21:28.440Z,97.60
2023-08-15T21:24:02.885Z,97.70
2023-08-15T21:26:32.952Z,97.80
2023-08-15T21:29:01.365Z,98.00
2023-08-15T21:31:30.905Z,98.10
2023-08-15T21:33:59.439Z,98.20
2023-08-15T21:36:29.177Z,98.30
2023-08-15T21:39:02.095Z,98.40
2023-08-15T21:41:31.506Z,98.60
2023-08-15T21:44:01.926Z,98.70
2023-08-15T21:46:33.482Z,98.90
2023-08-15T21:49:03.541Z,99.00
2023-08-15T21:51:38.464Z,99.20
2023-08-15T21:54:08.848Z,99.30
2023-08-15T21:56:37.567Z,99.40
2023-08-15T21:59:07.541Z,99.60
2023-08-15T22:01:37.338Z,99.70
2023-08-15T22:04:08.580Z,99.90
2023-08-15T22:06:37.158Z,99.90
2023-08-15T22:09:07.690Z,99.90
2023-08-15T22:11:36.437Z,99.90
2023-08-15T22:14:05.033Z,99.90
2023-08-15T22:16:33.836Z,99.90
2023-08-15T22:19:02.345Z,99.90
2023-08-15T22:21:30.993Z,99.90
2023-08-15T22:24:03.113Z,99.90
2023-08-15T22:26:33.015Z,99.90
2023-08-15T22:29:01.329Z,99.90
2023-08-15T22:31:30.483Z,99.90
2023-08-15T22:33:58.820Z,99.90
2023-08-15T22:36:27.414Z,99.90
2023-08-15T22:38:55.635Z,99.90
2023-08-15T22:41:24.100Z,99.90
2023-08-15T22:43:53.698Z,99.90
2023-08-15T22:46:22.250Z,99.90
2023-08-15T22:48:50.488Z,99.90
2023-08-15T22:51:19.033Z,99.90
2023-08-15T22:53:47.358Z,99.90
2023-08-15T22:56:15.985Z,99.90
2023-08-15T22:58:44.332Z,99.90
2023-08-15T23:01:14.310Z,99.90
2023-08-15T23:03:42.551Z,99.90
2023-08-15T23:06:11.622Z,99.90
2023-08-15T23:08:39.977Z,99.90
2023-08-15T23:11:08.694Z,99.90
2023-08-15T23:13:36.998Z,99.90
2023-08-15T23:16:06.122Z,99.90
2023-08-15T23:18:35.755Z,99.90
2023-08-15T23:21:04.659Z,99.90
2023-08-15T23:23:33.090Z,99.90
2023-08-15T23:26:01.540Z,99.90
2023-08-15T23:28:29.856Z,99.90
2023-08-15T23:30:58.574Z,99.90
2023-08-15T23:33:27.025Z,99.90
2023-08-15T23:35:56.896Z,99.90
2023-08-15T23:38:25.176Z,99.90
2023-08-15T23:40:54.058Z,99.90
2023-08-15T23:43:22.265Z,99.90
2023-08-15T23:45:51.215Z,99.90
2023-08-15T23:48:19.456Z,99.90
2023-08-15T23:50:47.968Z,99.90
2023-08-15T23:53:17.595Z,99.90
2023-08-15T23:55:46.507Z,99.90
2023-08-15T23:58:14.836Z,99.90
